createdAt,value
2022-12-24T00:02:01.360Z,20.10
2022-12-24T00:04:29.158Z,20.10
2022-12-24T00:06:56.905Z,20.10
2022-12-24T00:09:24.793Z,20.10
2022-12-24T00:11:52.560Z,20.10
2022-12-24T00:14:20.323Z,20.10
2022-12-24T00:16:48.117Z,20.10
2022-12-24T00:19:15.934Z,20.10
2022-12-24T00:21:43.704Z,20.10
2022-12-24T00:24:11.476Z,20.10
2022-12-24T00:26:39.227Z,20.10
2022-12-24T00:29:07.043Z,20.10
2022-12-24T00:31:34.902Z,20.10
2022-12-24T00:34:02.678Z,20.10
2022-12-24T00:36:30.519Z,20.10
2022-12-24T00:38:58.257Z,20.10
2022-12-24T00:41:26.448Z,20.00
2022-12-24T00:43:54.378Z,20.00
2022-12-24T00:46:22.237Z,20.00
2022-12-24T00:48:50.205Z,20.00
2022-12-24T00:53:48.654Z,20.00
2022-12-24T00:56:16.406Z,20.00
2022-12-24T00:58:44.193Z,20.00
2022-12-24T01:01:12.061Z,20.00
2022-12-24T01:03:39.923Z,20.00
2022-12-24T01:06:06.729Z,20.00
2022-12-24T01:08:34.428Z,20.00
2022-12-24T01:11:02.233Z,20.00
2022-12-24T01:13:30.079Z,19.90
2022-12-24T01:15:57.886Z,19.90
2022-12-24T01:18:25.684Z,20.00
2022-12-24T01:20:53.440Z,19.90
2022-12-24T01:23:21.245Z,19.90
2022-12-24T01:25:49.028Z,19.90
2022-12-24T01:28:16.779Z,19.90
2022-12-24T01:30:44.622Z,19.90
2022-12-24T01:33:12.386Z,19.90
2022-12-24T01:35:40.228Z,19.90
2022-12-24T01:38:07.971Z,19.90
2022-12-24T01:40:53.044Z,19.90
2022-12-24T01:43:28.519Z,19.90
2022-12-24T01:45:56.341Z,19.90
2022-12-24T01:48:24.811Z,19.90
2022-12-24T01:50:52.651Z,19.90
2022-12-24T01:53:20.431Z,19.90
2022-12-24T01:55:48.195Z,19.90
2022-12-24T01:58:15.943Z,19.90
2022-12-24T02:00:43.736Z,19.90
2022-12-24T02:03:11.550Z,19.90
2022-12-24T02:05:39.432Z,19.90
2022-12-24T02:08:07.184Z,19.80
2022-12-24T02:10:34.953Z,19.90
2022-12-24T02:13:02.727Z,19.90
2022-12-24T02:15:30.483Z,19.90
2022-12-24T02:17:58.392Z,19.80
2022-12-24T02:20:26.149Z,19.80
2022-12-24T02:22:54.016Z,19.80
2022-12-24T02:25:21.915Z,19.80
2022-12-24T02:27:49.776Z,19.80
2022-12-24T02:30:18.678Z,19.80
2022-12-24T02:32:46.475Z,19.80
2022-12-24T02:35:14.327Z,19.80
2022-12-24T02:37:42.109Z,19.80
2022-12-24T02:40:16.009Z,19.80
2022-12-24T02:42:44.260Z,19.80
2022-12-24T02:45:12.071Z,19.80
2022-12-24T02:47:39.881Z,19.80
2022-12-24T02:50:07.790Z,19.80
2022-12-24T02:52:35.672Z,19.80
2022-12-24T02:55:03.494Z,19.80
2022-12-24T02:57:31.223Z,19.80
2022-12-24T02:59:58.948Z,19.80
2022-12-24T03:02:26.881Z,19.80
2022-12-24T03:04:54.744Z,19.80
2022-12-24T03:07:23.851Z,19.80
2022-12-24T03:09:51.599Z,19.80
2022-12-24T03:12:19.351Z,19.80
2022-12-24T03:14:47.093Z,19.80
2022-12-24T03:17:14.899Z,19.80
2022-12-24T03:19:42.613Z,19.80
2022-12-24T03:22:10.389Z,19.80
2022-12-24T03:24:38.165Z,19.80
2022-12-24T03:27:05.899Z,19.80
2022-12-24T03:29:33.629Z,19.70
2022-12-24T03:32:01.465Z,19.80
2022-12-24T03:34:29.286Z,19.70
2022-12-24T03:36:57.172Z,19.80
2022-12-24T03:39:24.949Z,19.70
2022-12-24T03:41:52.766Z,19.80
2022-12-24T03:44:20.520Z,19.70
2022-12-24T03:46:48.301Z,19.70
2022-12-24T03:49:15.997Z,19.70
2022-12-24T03:51:43.773Z,19.70
2022-12-24T03:54:11.573Z,19.70
2022-12-24T03:56:39.347Z,19.70
2022-12-24T03:59:07.185Z,19.70
2022-12-24T04:01:35.067Z,19.80
2022-12-24T04:04:03.001Z,19.70
2022-12-24T04:06:30.744Z,19.70
2022-12-24T04:08:59.344Z,19.70
2022-12-24T04:11:27.207Z,19.70
2022-12-24T04:13:54.982Z,19.70
2022-12-24T04:16:22.760Z,19.70
2022-12-24T04:18:50.558Z,19.70
2022-12-24T04:21:18.282Z,19.70
2022-12-24T04:23:46.052Z,19.70
2022-12-24T04:26:13.843Z,19.70
2022-12-24T04:28:41.833Z,19.70
2022-12-24T04:31:09.618Z,19.70
2022-12-24T04:33:37.479Z,19.70
2022-12-24T04:36:05.269Z,19.70
2022-12-24T04:38:33.034Z,19.70
2022-12-24T04:41:00.919Z,19.70
2022-12-24T04:43:28.846Z,19.70
2022-12-24T04:45:56.647Z,19.70
2022-12-24T04:48:24.538Z,19.70
2022-12-24T04:50:52.270Z,19.70
2022-12-24T04:53:20.027Z,19.70
2022-12-24T04:55:47.831Z,19.70
2022-12-24T04:58:15.616Z,19.70
2022-12-24T05:00:43.417Z,19.80
2022-12-24T05:03:11.261Z,19.70
2022-12-24T05:05:39.060Z,19.80
2022-12-24T05:08:07.329Z,19.80
2022-12-24T05:10:35.061Z,19.70
2022-12-24T05:13:02.910Z,19.70
2022-12-24T05:15:30.748Z,19.70
2022-12-24T05:17:58.579Z,19.70
2022-12-24T05:20:26.360Z,19.70
2022-12-24T05:23:11.488Z,19.70
2022-12-24T05:25:56.720Z,19.70
2022-12-24T05:28:24.757Z,19.70
2022-12-24T05:30:52.579Z,19.70
2022-12-24T05:33:20.337Z,19.70
2022-12-24T05:35:48.109Z,19.70
2022-12-24T05:38:15.888Z,19.70
2022-12-24T05:40:43.780Z,19.70
2022-12-24T05:43:11.564Z,19.70
2022-12-24T05:45:39.349Z,19.70
2022-12-24T05:48:08.173Z,19.70
2022-12-24T05:50:35.939Z,19.80
2022-12-24T05:53:03.697Z,19.80
2022-12-24T05:55:31.518Z,19.90
2022-12-24T05:57:59.250Z,20.10
2022-12-24T06:00:26.955Z,20.20
2022-12-24T06:02:54.850Z,20.30
2022-12-24T06:05:22.617Z,20.40
2022-12-24T06:07:51.176Z,20.40
2022-12-24T06:10:19.567Z,20.50
2022-12-24T06:12:47.333Z,20.50
2022-12-24T06:15:20.271Z,20.50
2022-12-24T06:17:51.267Z,20.60
2022-12-24T06:20:19.075Z,20.60
2022-12-24T06:22:46.811Z,20.70
2022-12-24T06:25:14.524Z,20.80
2022-12-24T06:27:42.318Z,20.80
2022-12-24T06:30:10.142Z,21.80
2022-12-24T06:32:37.988Z,25.10
2022-12-24T06:35:05.938Z,28.90
2022-12-24T06:37:33.652Z,31.70
2022-12-24T06:40:01.538Z,33.40
2022-12-24T06:42:29.297Z,34.60
2022-12-24T06:44:59.787Z,35.30
2022-12-24T06:47:29.922Z,36.00
2022-12-24T06:49:57.668Z,36.50
2022-12-24T06:52:25.389Z,36.90
2022-12-24T06:54:53.132Z,37.40
2022-12-24T06:57:20.963Z,37.80
2022-12-24T06:59:48.717Z,38.40
2022-12-24T07:02:16.577Z,38.90
2022-12-24T07:04:44.470Z,39.40
2022-12-24T07:07:12.341Z,39.50
2022-12-24T07:09:40.111Z,39.50
2022-12-24T07:12:07.965Z,39.20
2022-12-24T07:14:35.796Z,38.60
2022-12-24T07:17:03.626Z,37.90
2022-12-24T07:19:31.483Z,37.10
2022-12-24T07:21:59.187Z,36.30
2022-12-24T07:24:26.869Z,35.50
2022-12-24T07:26:54.655Z,34.60
2022-12-24T07:29:22.451Z,33.80
2022-12-24T07:31:50.282Z,33.10
2022-12-24T07:34:18.010Z,32.40
2022-12-24T07:36:46.093Z,31.70
2022-12-24T07:39:13.833Z,31.00
2022-12-24T07:41:42.029Z,30.40
2022-12-24T07:44:09.772Z,29.80
2022-12-24T07:46:37.572Z,29.30
2022-12-24T07:49:05.384Z,28.80
2022-12-24T07:51:33.110Z,28.30
2022-12-24T07:54:00.817Z,27.90
2022-12-24T07:56:28.657Z,27.40
2022-12-24T07:58:56.416Z,27.00
2022-12-24T08:01:24.435Z,26.60
2022-12-24T08:03:54.665Z,26.20
2022-12-24T08:06:22.893Z,25.90
2022-12-24T08:08:50.622Z,25.50
2022-12-24T08:11:18.582Z,25.20
2022-12-24T08:13:46.316Z,24.90
2022-12-24T08:16:14.076Z,24.60
2022-12-24T08:18:41.801Z,24.30
2022-12-24T08:21:09.531Z,24.10
2022-12-24T08:23:37.391Z,23.80
2022-12-24T08:26:05.100Z,23.60
2022-12-24T08:28:32.824Z,23.30
2022-12-24T08:31:00.543Z,23.10
2022-12-24T08:33:28.346Z,23.00
2022-12-24T08:35:56.185Z,23.10
2022-12-24T08:38:24.016Z,24.40
2022-12-24T08:40:52.204Z,27.50
2022-12-24T08:43:19.959Z,30.60
2022-12-24T08:45:48.219Z,33.00
2022-12-24T08:48:15.991Z,34.60
2022-12-24T08:50:43.971Z,35.70
2022-12-24T08:53:11.746Z,36.10
2022-12-24T08:55:39.693Z,36.00
2022-12-24T08:58:07.456Z,35.60
2022-12-24T09:00:35.229Z,35.10
2022-12-24T09:03:03.061Z,34.60
2022-12-24T09:05:30.969Z,33.90
2022-12-24T09:07:58.704Z,33.20
2022-12-24T09:10:26.679Z,32.50
2022-12-24T09:12:54.495Z,31.90
2022-12-24T09:15:22.365Z,31.30
2022-12-24T09:17:50.100Z,30.70
2022-12-24T09:20:17.848Z,30.20
2022-12-24T09:22:45.593Z,29.60
2022-12-24T09:25:13.449Z,29.10
2022-12-24T09:27:41.140Z,28.60
2022-12-24T09:30:09.005Z,28.20
2022-12-24T09:32:36.687Z,27.80
2022-12-24T09:35:04.549Z,27.30
2022-12-24T09:37:32.280Z,26.90
2022-12-24T09:40:00.200Z,26.60
2022-12-24T09:42:27.923Z,26.30
2022-12-24T09:44:55.618Z,25.90
2022-12-24T09:47:23.620Z,25.60
2022-12-24T09:49:51.493Z,25.30
2022-12-24T09:52:19.182Z,25.00
2022-12-24T09:55:00.108Z,24.70
2022-12-24T09:57:27.799Z,24.50
2022-12-24T09:59:55.524Z,24.20
2022-12-24T10:02:23.460Z,24.00
2022-12-24T10:04:51.279Z,23.70
2022-12-24T10:07:19.045Z,23.60
2022-12-24T10:09:46.812Z,23.40
2022-12-24T10:12:15.617Z,23.20
2022-12-24T10:14:43.329Z,23.10
2022-12-24T10:17:11.083Z,22.90
2022-12-24T10:19:38.894Z,22.80
2022-12-24T10:22:06.589Z,22.60
2022-12-24T10:24:34.689Z,22.50
2022-12-24T10:27:02.521Z,22.50
2022-12-24T10:29:30.436Z,22.40
2022-12-24T10:31:58.151Z,22.30
2022-12-24T10:34:26.077Z,22.20
2022-12-24T10:36:53.951Z,22.10
2022-12-24T10:39:21.686Z,22.10
2022-12-24T10:41:49.461Z,22.00
2022-12-24T10:44:17.210Z,21.90
2022-12-24T10:46:45.029Z,21.90
2022-12-24T10:49:12.808Z,21.80
2022-12-24T10:51:40.530Z,21.70
2022-12-24T10:54:08.279Z,21.70
2022-12-24T10:56:36.056Z,21.60
2022-12-24T10:59:03.855Z,21.50
2022-12-24T11:01:31.768Z,21.50
2022-12-24T11:03:59.650Z,21.40
2022-12-24T11:06:27.376Z,21.40
2022-12-24T11:08:55.211Z,21.30
2022-12-24T11:11:23.669Z,21.20
2022-12-24T11:13:51.414Z,21.20
2022-12-24T11:16:19.371Z,21.20
2022-12-24T11:18:51.223Z,21.10
2022-12-24T11:21:19.551Z,21.10
2022-12-24T11:23:47.532Z,21.10
2022-12-24T11:26:15.224Z,21.00
2022-12-24T11:28:42.965Z,21.00
2022-12-24T11:31:11.074Z,21.00
2022-12-24T11:33:38.976Z,21.00
2022-12-24T11:36:06.750Z,20.90
2022-12-24T11:38:34.458Z,20.90
2022-12-24T11:41:02.185Z,20.90
2022-12-24T11:43:44.495Z,20.90
2022-12-24T11:46:12.396Z,20.90
2022-12-24T11:48:40.295Z,20.80
2022-12-24T11:51:08.041Z,20.80
2022-12-24T11:53:36.139Z,20.80
2022-12-24T11:56:03.967Z,20.80
2022-12-24T11:58:32.016Z,20.70
2022-12-24T12:00:59.772Z,20.70
2022-12-24T12:03:27.610Z,20.70
2022-12-24T12:05:55.425Z,20.70
2022-12-24T12:08:23.223Z,20.60
2022-12-24T12:10:51.030Z,20.60
2022-12-24T12:13:18.980Z,20.60
2022-12-24T12:15:46.872Z,20.60
2022-12-24T12:18:14.723Z,20.60
2022-12-24T12:20:42.592Z,20.60
2022-12-24T12:23:10.370Z,20.60
2022-12-24T12:25:38.253Z,20.60
2022-12-24T12:28:06.042Z,20.60
2022-12-24T12:30:33.825Z,20.50
2022-12-24T12:33:01.875Z,20.50
2022-12-24T12:35:29.709Z,20.50
2022-12-24T12:37:58.298Z,20.60
2022-12-24T12:40:26.208Z,20.60
2022-12-24T12:42:53.958Z,20.60
2022-12-24T12:45:21.685Z,20.60
2022-12-24T12:47:49.690Z,20.60
2022-12-24T12:50:17.509Z,22.00
2022-12-24T12:52:45.259Z,25.60
2022-12-24T12:55:22.202Z,29.40
2022-12-24T12:57:52.124Z,32.30
2022-12-24T13:00:19.915Z,34.30
2022-12-24T13:02:47.815Z,35.70
2022-12-24T13:05:15.676Z,36.70
2022-12-24T13:07:43.592Z,37.40
2022-12-24T13:10:11.348Z,38.00
2022-12-24T13:12:39.184Z,38.40
2022-12-24T13:15:07.054Z,38.70
2022-12-24T13:17:34.843Z,38.90
2022-12-24T13:20:02.703Z,39.00
2022-12-24T13:22:30.475Z,39.00
2022-12-24T13:24:58.267Z,38.70
2022-12-24T13:27:26.138Z,38.20
2022-12-24T13:29:54.319Z,37.50
2022-12-24T13:32:22.174Z,36.80
2022-12-24T13:34:49.939Z,36.00
2022-12-24T13:37:17.761Z,35.20
2022-12-24T13:39:45.567Z,34.30
2022-12-24T13:42:13.332Z,33.60
2022-12-24T13:44:41.150Z,32.90
2022-12-24T13:47:08.975Z,32.20
2022-12-24T13:49:36.849Z,31.50
2022-12-24T13:52:04.723Z,30.90
2022-12-24T13:54:32.561Z,30.30
2022-12-24T13:57:00.416Z,29.80
2022-12-24T13:59:33.052Z,29.30
2022-12-24T14:02:04.228Z,28.70
2022-12-24T14:04:32.160Z,28.30
2022-12-24T14:07:00.210Z,27.80
2022-12-24T14:09:27.962Z,27.40
2022-12-24T14:11:56.737Z,27.00
2022-12-24T14:14:24.601Z,26.60
2022-12-24T14:16:53.498Z,26.30
2022-12-24T14:19:21.332Z,25.90
2022-12-24T14:21:49.149Z,25.60
2022-12-24T14:24:16.958Z,25.30
2022-12-24T14:26:46.121Z,25.00
2022-12-24T14:29:13.962Z,24.80
2022-12-24T14:31:41.818Z,24.80
2022-12-24T14:34:09.666Z,25.00
2022-12-24T14:36:37.569Z,25.10
2022-12-24T14:39:05.452Z,25.40
2022-12-24T14:41:33.254Z,25.80
2022-12-24T14:44:01.037Z,26.10
2022-12-24T14:46:29.033Z,26.50
2022-12-24T14:48:57.017Z,26.80
2022-12-24T14:51:24.817Z,27.10
2022-12-24T14:53:52.646Z,27.30
2022-12-24T14:56:20.429Z,27.50
2022-12-24T14:58:48.259Z,27.70
2022-12-24T15:01:16.171Z,27.80
2022-12-24T15:03:44.066Z,27.90
2022-12-24T15:06:11.950Z,27.90
2022-12-24T15:08:40.060Z,27.90
2022-12-24T15:11:07.909Z,27.90
2022-12-24T15:13:36.940Z,27.80
2022-12-24T15:16:05.025Z,27.80
2022-12-24T15:18:32.869Z,27.70
2022-12-24T15:21:04.413Z,27.60
2022-12-24T15:23:32.624Z,27.50
2022-12-24T15:26:00.383Z,27.30
2022-12-24T15:28:28.147Z,27.20
2022-12-24T15:30:56.392Z,27.10
2022-12-24T15:33:24.215Z,27.00
2022-12-24T15:35:51.993Z,26.80
2022-12-24T15:38:19.798Z,26.70
2022-12-24T15:40:47.597Z,26.60
2022-12-24T15:43:15.382Z,26.50
2022-12-24T15:45:43.230Z,26.40
2022-12-24T15:48:11.007Z,26.30
2022-12-24T15:50:38.787Z,26.20
2022-12-24T15:53:20.595Z,26.10
2022-12-24T15:55:49.528Z,25.90
2022-12-24T15:58:17.540Z,25.70
2022-12-24T16:00:45.308Z,25.50
2022-12-24T16:03:13.291Z,25.20
2022-12-24T16:05:41.188Z,25.00
2022-12-24T16:08:09.009Z,24.70
2022-12-24T16:10:38.931Z,24.50
2022-12-24T16:13:06.759Z,24.30
2022-12-24T16:15:34.650Z,24.00
2022-12-24T16:18:02.406Z,23.80
2022-12-24T16:20:30.549Z,23.60
2022-12-24T16:22:58.347Z,23.40
2022-12-24T16:25:26.125Z,23.20
2022-12-24T16:27:55.518Z,23.10
2022-12-24T16:30:25.093Z,23.60
2022-12-24T16:32:52.870Z,25.80
2022-12-24T16:35:20.812Z,29.10
2022-12-24T16:37:48.560Z,31.90
2022-12-24T16:40:20.573Z,33.90
2022-12-24T16:43:07.454Z,35.30
2022-12-24T16:45:35.579Z,36.40
2022-12-24T16:48:03.384Z,37.30
2022-12-24T16:50:31.215Z,37.70
2022-12-24T16:52:59.061Z,37.90
2022-12-24T16:55:26.822Z,37.70
2022-12-24T16:57:54.612Z,37.20
2022-12-24T17:00:22.644Z,36.60
2022-12-24T17:02:50.879Z,36.00
2022-12-24T17:05:18.777Z,35.20
2022-12-24T17:07:46.567Z,34.40
2022-12-24T17:10:14.780Z,33.70
2022-12-24T17:12:42.688Z,33.00
2022-12-24T17:15:10.821Z,32.30
2022-12-24T17:17:38.637Z,31.60
2022-12-24T17:20:06.430Z,31.00
2022-12-24T17:22:34.205Z,30.40
2022-12-24T17:25:02.323Z,29.80
2022-12-24T17:27:30.111Z,29.30
2022-12-24T17:29:57.973Z,28.80
2022-12-24T17:32:25.756Z,28.30
2022-12-24T17:34:53.714Z,27.90
2022-12-24T17:37:21.519Z,27.50
2022-12-24T17:39:49.313Z,27.10
2022-12-24T17:42:17.074Z,26.70
2022-12-24T17:44:44.948Z,26.40
2022-12-24T17:47:12.759Z,26.10
2022-12-24T17:49:40.597Z,25.80
2022-12-24T17:52:08.788Z,25.40
2022-12-24T17:54:36.700Z,25.20
2022-12-24T17:57:04.517Z,24.90
2022-12-24T17:59:32.331Z,24.70
2022-12-24T18:02:00.152Z,24.50
2022-12-24T18:04:28.086Z,24.30
2022-12-24T18:07:01.967Z,24.10
2022-12-24T18:09:30.374Z,24.00
2022-12-24T18:11:58.171Z,23.80
2022-12-24T18:14:26.784Z,23.60
2022-12-24T18:16:54.566Z,23.50
2022-12-24T18:19:22.413Z,23.30
2022-12-24T18:21:50.240Z,23.20
2022-12-24T18:24:18.000Z,23.00
2022-12-24T18:26:46.143Z,22.90
2022-12-24T18:29:13.980Z,22.80
2022-12-24T18:31:41.825Z,22.70
2022-12-24T18:34:09.765Z,22.60
2022-12-24T18:36:37.896Z,22.50
2022-12-24T18:39:06.385Z,22.40
2022-12-24T18:41:35.372Z,22.30
2022-12-24T18:44:03.183Z,23.00
2022-12-24T18:46:30.980Z,25.60
2022-12-24T18:48:59.589Z,29.40
2022-12-24T18:51:27.333Z,32.60
2022-12-24T18:53:55.130Z,35.00
2022-12-24T18:56:22.886Z,36.70
2022-12-24T18:58:50.812Z,38.10
2022-12-24T19:01:18.762Z,39.00
2022-12-24T19:03:46.653Z,39.50
2022-12-24T19:06:14.430Z,39.50
2022-12-24T19:08:59.531Z,39.10
2022-12-24T19:11:28.292Z,38.50
2022-12-24T19:13:58.076Z,37.70
2022-12-24T19:16:26.305Z,36.90
2022-12-24T19:18:54.205Z,36.10
2022-12-24T19:21:21.962Z,35.30
2022-12-24T19:23:49.809Z,34.50
2022-12-24T19:26:17.694Z,33.70
2022-12-24T19:28:45.785Z,32.90
2022-12-24T19:31:13.652Z,32.10
2022-12-24T19:33:43.312Z,31.50
2022-12-24T19:36:11.631Z,30.80
2022-12-24T19:38:39.367Z,30.30
2022-12-24T19:41:07.370Z,29.70
2022-12-24T19:43:35.174Z,29.10
2022-12-24T19:46:03.153Z,28.60
2022-12-24T19:48:31.124Z,28.20
2022-12-24T19:50:59.030Z,27.80
2022-12-24T19:53:26.799Z,27.40
2022-12-24T19:55:54.545Z,27.00
2022-12-24T19:58:22.337Z,26.60
2022-12-24T20:00:50.140Z,26.30
2022-12-24T20:03:18.020Z,26.00
2022-12-24T20:05:45.930Z,25.60
2022-12-24T20:08:13.713Z,25.40
2022-12-24T20:10:41.750Z,25.10
2022-12-24T20:13:09.532Z,24.80
2022-12-24T20:15:37.378Z,24.60
2022-12-24T20:18:05.166Z,24.40
2022-12-24T20:20:32.974Z,24.20
2022-12-24T20:23:00.735Z,24.00
2022-12-24T20:25:28.651Z,23.80
2022-12-24T20:27:56.493Z,23.60
2022-12-24T20:30:24.282Z,23.50
2022-12-24T20:32:52.142Z,23.30
2022-12-24T20:35:20.164Z,23.20
2022-12-24T20:37:47.962Z,23.10
2022-12-24T20:40:15.772Z,23.00
2022-12-24T20:42:43.528Z,22.90
2022-12-24T20:45:11.410Z,22.70
2022-12-24T20:47:39.250Z,22.70
2022-12-24T20:50:07.063Z,22.60
2022-12-24T20:52:34.835Z,22.50
2022-12-24T20:55:02.649Z,22.40
2022-12-24T20:57:36.091Z,22.30
2022-12-24T21:00:04.532Z,22.20
2022-12-24T21:02:32.526Z,22.10
2022-12-24T21:05:02.594Z,22.00
2022-12-24T21:07:30.659Z,21.90
2022-12-24T21:09:58.661Z,21.80
2022-12-24T21:12:43.862Z,21.80
2022-12-24T21:15:12.016Z,21.70
2022-12-24T21:17:39.751Z,21.70
2022-12-24T21:20:07.564Z,21.60
2022-12-24T21:22:35.320Z,21.60
2022-12-24T21:25:03.187Z,21.60
2022-12-24T21:27:31.055Z,21.50
2022-12-24T21:29:58.925Z,21.50
2022-12-24T21:32:26.717Z,21.40
2022-12-24T21:34:54.556Z,21.40
2022-12-24T21:37:22.563Z,21.30
2022-12-24T21:39:50.388Z,21.30
2022-12-24T21:42:18.155Z,21.30
2022-12-24T21:44:45.926Z,21.20
2022-12-24T21:47:13.711Z,21.20
2022-12-24T21:49:59.183Z,21.20
2022-12-24T21:52:27.027Z,21.20
2022-12-24T21:54:53.811Z,21.10
2022-12-24T21:57:39.039Z,21.10
2022-12-24T22:00:20.628Z,21.10
2022-12-24T22:02:48.618Z,21.00
2022-12-24T22:05:16.622Z,21.00
2022-12-24T22:08:01.300Z,21.00
2022-12-24T22:10:46.693Z,21.00
2022-12-24T22:13:14.502Z,20.90
2022-12-24T22:15:42.381Z,20.90
2022-12-24T22:18:10.143Z,20.90
2022-12-24T22:20:38.130Z,20.90
2022-12-24T22:23:05.901Z,20.90
2022-12-24T22:25:33.921Z,20.90
2022-12-24T22:28:01.805Z,20.80
2022-12-24T22:30:29.765Z,20.80
2022-12-24T22:32:57.641Z,20.80
2022-12-24T22:35:25.550Z,20.80
2022-12-24T22:37:59.567Z,20.80
2022-12-24T22:40:28.157Z,20.80
2022-12-24T22:42:56.191Z,20.70
2022-12-24T22:45:24.263Z,20.70
2022-12-24T22:47:52.300Z,20.70
2022-12-24T22:50:20.101Z,20.70
2022-12-24T22:52:47.954Z,20.70
2022-12-24T22:55:15.772Z,20.70
2022-12-24T22:57:44.021Z,20.70
2022-12-24T23:00:11.828Z,20.60
2022-12-24T23:02:39.821Z,20.60
2022-12-24T23:05:08.391Z,20.60
2022-12-24T23:07:36.256Z,20.60
2022-12-24T23:10:04.149Z,20.60
2022-12-24T23:12:49.586Z,20.60
2022-12-24T23:15:17.477Z,20.60
2022-12-24T23:17:45.266Z,20.50
2022-12-24T23:20:13.211Z,20.50
2022-12-24T23:22:41.042Z,20.50
2022-12-24T23:25:08.974Z,20.40
2022-12-24T23:27:36.776Z,20.50
2022-12-24T23:30:04.555Z,20.50
2022-12-24T23:32:32.592Z,20.40
2022-12-24T23:35:00.397Z,20.40
2022-12-24T23:37:34.637Z,20.40
2022-12-24T23:40:03.088Z,20.40
2022-12-24T23:42:32.268Z,20.40
2022-12-24T23:45:00.130Z,20.40
2022-12-24T23:47:28.077Z,20.40
2022-12-24T23:49:56.434Z,20.30
2022-12-24T23:52:24.209Z,20.30
2022-12-24T23:54:52.023Z,20.30
2022-12-24T23:57:19.982Z,20.30
2022-12-24T23:59:47.837Z,20.40
